Time,TemperatureF,DewpointF,PressureIn,WindDirection,WindDirectionDegrees,WindSpeedMPH,WindSpeedGustMPH,Humidity,HourlyPrecipIn,Conditions,Clouds,dailyrainin,SolarRadiationWatts/m^2,SoftwareType,DateUTC
2013-01-25 00:01:00,51.4,44.8,30.32,NNE,25,7.0,16.0,78,0.00,,,0.00,0.0,meteohub,2013-01-25 05:01:00,
2013-01-25 00:02:00,51.4,44.8,30.32,NNE,32,11.0,14.0,78,0.00,,,0.00,0.0,meteohub,2013-01-25 05:02:00,
2013-01-25 00:03:00,51.4,44.8,30.32,NE,39,7.0,14.0,78,0.00,,,0.00,0.0,meteohub,2013-01-25 05:03:00,
2013-01-25 00:08:00,51.4,44.8,30.32,NE,35,10.0,14.0,78,0.00,,,0.00,0.0,meteohub,2013-01-25 05:08:00,
2013-01-25 00:13:00,51.3,45.0,30.32,North,11,8.0,14.0,79,0.00,,,0.00,0.0,meteohub,2013-01-25 05:13:00,
2013-01-25 00:18:00,51.3,45.0,30.33,NE,44,4.0,15.0,79,0.00,,,0.00,0.0,meteohub,2013-01-25 05:18:00,
2013-01-25 00:23:00,51.3,45.0,30.33,North,10,3.0,15.0,79,0.00,,,0.00,0.0,meteohub,2013-01-25 05:23:00,
2013-01-25 00:28:00,51.3,45.0,30.32,NNE,24,9.0,17.0,79,0.00,,,0.00,0.0,meteohub,2013-01-25 05:28:00,
2013-01-25 00:33:00,51.3,45.0,30.33,ENE,65,7.0,17.0,79,0.00,,,0.00,0.0,meteohub,2013-01-25 05:33:00,
2013-01-25 00:38:00,51.1,44.8,30.32,NNE,21,4.0,18.0,79,0.00,,,0.00,0.0,meteohub,2013-01-25 05:38:00,
2013-01-25 00:43:00,51.1,44.8,30.32,North,5,5.0,18.0,79,0.00,,,0.00,0.0,meteohub,2013-01-25 05:43:00,
2013-01-25 00:48:00,50.9,44.6,30.32,ENE,71,7.0,18.0,79,0.00,,,0.00,0.0,meteohub,2013-01-25 05:48:00,
2013-01-25 00:53:00,50.7,44.4,30.32,NE,41,7.0,15.0,79,0.00,,,0.00,0.0,meteohub,2013-01-25 05:53:00,
2013-01-25 00:58:00,50.5,44.2,30.32,ENE,59,7.0,15.0,79,0.00,,,0.00,0.0,meteohub,2013-01-25 05:58:00,
2013-01-25 01:03:00,50.5,44.2,30.32,NNE,24,7.0,15.0,79,0.00,,,0.00,0.0,meteohub,2013-01-25 06:03:00,
2013-01-25 01:08:00,50.4,44.1,30.32,North,10,11.0,15.0,79,0.00,,,0.00,0.0,meteohub,2013-01-25 06:08:00,
2013-01-25 01:13:00,50.4,44.1,30.32,ENE,61,10.0,16.0,79,0.00,,,0.00,0.0,meteohub,2013-01-25 06:13:00,
2013-01-25 01:18:00,50.4,44.1,30.31,NE,34,6.0,16.0,79,0.00,,,0.00,0.0,meteohub,2013-01-25 06:18:00,
2013-01-25 01:23:00,50.2,44.2,30.31,NNE,30,6.0,16.0,80,0.00,,,0.00,0.0,meteohub,2013-01-25 06:23:00,
2013-01-25 01:28:00,50.2,44.2,30.31,North,11,8.0,15.0,80,0.00,,,0.00,0.0,meteohub,2013-01-25 06:28:00,
2013-01-25 01:33:00,50.2,44.2,30.31,NE,46,4.0,15.0,80,0.00,,,0.00,0.0,meteohub,2013-01-25 06:33:00,
2013-01-25 01:38:00,50.2,44.2,30.31,NNE,32,7.0,15.0,80,0.00,,,0.00,0.0,meteohub,2013-01-25 06:38:00,
2013-01-25 01:43:00,50.2,44.2,30.31,East,84,3.0,12.0,80,0.00,,,0.00,0.0,meteohub,2013-01-25 06:43:00,
2013-01-25 01:49:00,50.0,44.1,30.32,NE,38,4.0,12.0,80,0.00,,,0.00,0.0,meteohub,2013-01-25 06:49:00,
2013-01-25 01:54:00,50.0,44.1,30.32,NE,45,4.0,12.0,80,0.00,,,0.00,0.0,meteohub,2013-01-25 06:54:00,
2013-01-25 01:59:00,50.0,44.1,30.32,NE,34,8.0,12.0,80,0.00,,,0.00,0.0,meteohub,2013-01-25 06:59:00,
2013-01-25 02:04:00,50.0,44.1,30.32,North,355,5.0,12.0,80,0.00,,,0.00,0.0,meteohub,2013-01-25 07:04:00,
2013-01-25 02:09:00,50.0,44.1,30.32,ENE,62,8.0,10.0,80,0.00,,,0.00,0.0,meteohub,2013-01-25 07:09:00,
2013-01-25 02:14:00,50.0,44.4,30.32,NNE,13,4.0,10.0,81,0.00,,,0.00,0.0,meteohub,2013-01-25 07:14:00,
2013-01-25 02:19:00,49.8,44.2,30.32,ENE,71,4.0,10.0,81,0.00,,,0.00,0.0,meteohub,2013-01-25 07:19:00,
2013-01-25 02:24:00,49.8,44.2,30.32,ENE,60,9.0,9.0,81,0.00,,,0.00,0.0,meteohub,2013-01-25 07:24:00,
2013-01-25 02:29:00,50.0,44.4,30.31,NNE,16,8.0,11.0,81,0.00,,,0.00,0.0,meteohub,2013-01-25 07:29:00,
2013-01-25 02:34:00,50.2,45.0,30.32,NNE,22,8.0,12.0,82,0.00,,,0.00,0.0,meteohub,2013-01-25 07:34:00,
2013-01-25 02:39:00,50.2,44.6,30.32,NE,55,5.0,12.0,81,0.00,,,0.00,0.0,meteohub,2013-01-25 07:39:00,
2013-01-25 02:44:00,50.2,45.0,30.32,NNE,32,6.0,12.0,82,0.00,,,0.00,0.0,meteohub,2013-01-25 07:44:00,
2013-01-25 02:49:00,50.4,45.1,30.32,North,0,6.0,12.0,82,0.00,,,0.00,0.0,meteohub,2013-01-25 07:49:00,
2013-01-25 02:54:00,50.4,45.1,30.32,NE,44,3.0,13.0,82,0.00,,,0.00,0.0,meteohub,2013-01-25 07:54:00,
2013-01-25 02:59:00,50.2,45.0,30.32,NE,38,4.0,13.0,82,0.00,,,0.00,0.0,meteohub,2013-01-25 07:59:00,
2013-01-25 03:04:00,50.2,45.0,30.33,NE,37,7.0,14.0,82,0.00,,,0.00,0.0,meteohub,2013-01-25 08:04:00,
2013-01-25 03:09:00,50.0,44.8,30.33,NE,50,12.0,14.0,82,0.00,,,0.00,0.0,meteohub,2013-01-25 08:09:00,
2013-01-25 03:14:00,49.8,44.6,30.33,NNE,28,3.0,15.0,82,0.00,,,0.00,0.0,meteohub,2013-01-25 08:14:00,
2013-01-25 03:19:00,49.8,44.6,30.33,North,9,8.0,15.0,82,0.00,,,0.00,0.0,meteohub,2013-01-25 08:19:00,
2013-01-25 03:24:00,49.8,44.6,30.33,NNE,30,8.0,15.0,82,0.00,,,0.00,0.0,meteohub,2013-01-25 08:24:00,
2013-01-25 03:29:00,49.8,44.6,30.33,NE,42,5.0,15.0,82,0.00,,,0.00,0.0,meteohub,2013-01-25 08:29:00,
2013-01-25 03:34:00,49.8,44.6,30.33,NE,36,4.0,15.0,82,0.00,,,0.00,0.0,meteohub,2013-01-25 08:34:00,
2013-01-25 03:39:00,49.8,44.6,30.33,NE,40,1.0,13.0,82,0.00,,,0.00,0.0,meteohub,2013-01-25 08:39:00,
2013-01-25 03:44:00,49.6,44.4,30.33,ENE,57,4.0,14.0,82,0.00,,,0.00,0.0,meteohub,2013-01-25 08:44:00,
2013-01-25 03:49:00,49.6,44.4,30.33,NE,35,3.0,15.0,82,0.00,,,0.00,0.0,meteohub,2013-01-25 08:49:00,
2013-01-25 03:54:00,49.6,44.4,30.33,NNE,31,7.0,15.0,82,0.00,,,0.00,0.0,meteohub,2013-01-25 08:54:00,
2013-01-25 03:59:00,49.6,44.4,30.33,NNE,15,5.0,15.0,82,0.00,,,0.00,0.0,meteohub,2013-01-25 08:59:00,
2013-01-25 04:04:00,49.5,44.2,30.33,NNE,30,6.0,15.0,82,0.00,,,0.00,0.0,meteohub,2013-01-25 09:04:00,
2013-01-25 04:09:00,49.5,44.2,30.33,NE,51,8.0,12.0,82,0.00,,,0.00,0.0,meteohub,2013-01-25 09:09:00,
2013-01-25 04:14:00,49.5,44.2,30.33,NNE,27,7.0,14.0,82,0.00,,,0.00,0.0,meteohub,2013-01-25 09:14:00,
2013-01-25 04:19:00,49.5,44.2,30.34,NNE,19,3.0,14.0,82,0.00,,,0.00,0.0,meteohub,2013-01-25 09:19:00,
2013-01-25 04:24:00,49.5,44.2,30.33,NNW,348,1.0,13.0,82,0.00,,,0.00,0.0,meteohub,2013-01-25 09:24:00,
2013-01-25 04:29:00,49.3,44.1,30.33,NNE,30,2.0,12.0,82,0.00,,,0.00,0.0,meteohub,2013-01-25 09:29:00,
2013-01-25 04:34:00,49.5,44.2,30.34,NNE,29,5.0,12.0,82,0.00,,,0.00,0.0,meteohub,2013-01-25 09:34:00,
2013-01-25 04:39:00,49.5,44.2,30.34,NNE,15,6.0,15.0,82,0.00,,,0.00,0.0,meteohub,2013-01-25 09:39:00,
2013-01-25 04:44:00,49.3,44.4,30.34,ENE,57,7.0,15.0,83,0.00,,,0.00,0.0,meteohub,2013-01-25 09:44:00,
2013-01-25 04:49:00,49.3,44.4,30.33,NE,55,8.0,19.0,83,0.00,,,0.00,0.0,meteohub,2013-01-25 09:49:00,
2013-01-25 04:54:00,49.3,44.1,30.33,ENE,62,5.0,19.0,82,0.00,,,0.00,0.0,meteohub,2013-01-25 09:54:00,
2013-01-25 04:59:00,49.1,43.9,30.33,NNE,24,1.0,19.0,82,0.00,,,0.00,0.0,meteohub,2013-01-25 09:59:00,
2013-01-25 05:05:00,48.9,43.7,30.33,NE,37,7.0,16.0,82,0.00,,,0.00,0.0,meteohub,2013-01-25 10:05:00,
2013-01-25 05:10:00,48.9,43.7,30.33,ENE,62,8.0,14.0,82,0.00,,,0.00,0.0,meteohub,2013-01-25 10:10:00,
2013-01-25 05:15:00,48.9,44.1,30.33,North,11,5.0,14.0,83,0.00,,,0.00,0.0,meteohub,2013-01-25 10:15:00,
2013-01-25 05:20:00,48.9,43.7,30.33,ENE,59,8.0,14.0,82,0.00,,,0.00,0.0,meteohub,2013-01-25 10:20:00,
2013-01-25 05:25:00,48.9,43.7,30.32,NE,39,6.0,15.0,82,0.00,,,0.00,0.0,meteohub,2013-01-25 10:25:00,
2013-01-25 05:30:00,48.7,43.5,30.32,NNE,14,6.0,15.0,82,0.00,,,0.00,0.0,meteohub,2013-01-25 10:30:00,
2013-01-25 05:35:00,48.7,43.5,30.33,NNE,32,5.0,15.0,82,0.00,,,0.00,0.0,meteohub,2013-01-25 10:35:00,
2013-01-25 05:40:00,48.0,42.8,30.33,NE,39,4.0,13.0,82,0.00,,,0.00,0.0,meteohub,2013-01-25 10:40:00,
2013-01-25 05:45:00,47.7,42.4,30.33,NE,45,7.0,16.0,82,0.00,,,0.00,0.0,meteohub,2013-01-25 10:45:00,
2013-01-25 05:50:00,46.9,41.7,30.33,NNE,33,3.0,16.0,82,0.00,,,0.00,0.0,meteohub,2013-01-25 10:50:00,
2013-01-25 05:55:00,46.4,41.2,30.33,North,355,9.0,16.0,82,0.00,,,0.00,0.0,meteohub,2013-01-25 10:55:00,
2013-01-25 06:00:00,45.9,40.6,30.33,NNE,21,1.0,11.0,82,0.00,,,0.00,0.0,meteohub,2013-01-25 11:00:00,
2013-01-25 06:05:00,45.5,40.3,30.33,NNE,26,8.0,17.0,82,0.00,,,0.00,0.0,meteohub,2013-01-25 11:05:00,
2013-01-25 06:10:00,45.0,39.7,30.33,NNE,30,8.0,17.0,82,0.00,,,0.00,0.0,meteohub,2013-01-25 11:10:00,
2013-01-25 06:15:00,44.8,39.6,30.32,NNE,27,3.0,11.0,82,0.00,,,0.00,0.0,meteohub,2013-01-25 11:15:00,
2013-01-25 06:20:00,44.4,39.2,30.32,NE,34,0.0,11.0,82,0.00,,,0.00,0.0,meteohub,2013-01-25 11:20:00,
2013-01-25 06:25:00,44.4,39.6,30.32,NNE,26,2.0,11.0,83,0.00,,,0.00,0.0,meteohub,2013-01-25 11:25:00,
2013-01-25 06:30:00,44.6,39.7,30.33,NE,48,4.0,9.0,83,0.00,,,0.00,0.0,meteohub,2013-01-25 11:30:00,
2013-01-25 06:35:00,44.6,39.7,30.33,NE,45,4.0,7.0,83,0.00,,,0.00,0.0,meteohub,2013-01-25 11:35:00,
2013-01-25 06:40:00,44.4,39.6,30.33,NE,35,2.0,7.0,83,0.00,,,0.00,0.0,meteohub,2013-01-25 11:40:00,
2013-01-25 06:45:00,44.4,39.6,30.33,NNE,17,2.0,9.0,83,0.00,,,0.00,0.0,meteohub,2013-01-25 11:45:00,
2013-01-25 06:50:00,44.4,39.6,30.33,NE,40,3.0,9.0,83,0.00,,,0.00,0.0,meteohub,2013-01-25 11:50:00,
2013-01-25 06:55:00,44.2,39.4,30.33,NE,53,6.0,7.0,83,0.00,,,0.00,0.0,meteohub,2013-01-25 11:55:00,
2013-01-25 07:00:00,44.1,39.2,30.33,NW,304,0.0,7.0,83,0.00,,,0.00,0.0,meteohub,2013-01-25 12:00:00,
2013-01-25 07:05:00,44.1,39.2,30.33,North,5,1.0,7.0,83,0.00,,,0.00,0.0,meteohub,2013-01-25 12:05:00,
2013-01-25 07:10:00,43.9,39.0,30.33,NE,40,3.0,8.0,83,0.00,,,0.00,0.0,meteohub,2013-01-25 12:10:00,
2013-01-25 07:15:00,43.7,39.2,30.34,NE,49,1.0,8.0,84,0.00,,,0.00,0.0,meteohub,2013-01-25 12:15:00,
2013-01-25 07:20:00,43.5,39.0,30.34,NE,37,1.0,8.0,84,0.00,,,0.00,5.0,meteohub,2013-01-25 12:20:00,
2013-01-25 07:25:00,43.2,38.7,30.34,NE,44,0.0,6.0,84,0.00,,,0.00,9.0,meteohub,2013-01-25 12:25:00,
2013-01-25 07:30:00,43.0,38.5,30.34,NNE,32,1.0,6.0,84,0.00,,,0.00,12.0,meteohub,2013-01-25 12:30:00,
2013-01-25 07:35:00,42.6,38.1,30.34,NW,304,0.0,5.0,84,0.00,,,0.00,18.0,meteohub,2013-01-25 12:35:00,
2013-01-25 07:40:00,42.4,37.9,30.33,NE,40,0.0,4.0,84,0.00,,,0.00,23.0,meteohub,2013-01-25 12:40:00,
2013-01-25 07:45:00,42.1,37.6,30.33,NNW,333,0.0,4.0,84,0.00,,,0.00,28.0,meteohub,2013-01-25 12:45:00,
2013-01-25 07:50:00,41.9,37.0,30.33,NNW,337,0.0,6.0,83,0.00,,,0.00,32.0,meteohub,2013-01-25 12:50:00,
2013-01-25 07:55:00,41.7,37.2,30.33,ENE,69,1.0,6.0,84,0.00,,,0.00,23.0,meteohub,2013-01-25 12:55:00,
2013-01-25 08:00:00,41.5,37.0,30.33,NE,46,0.0,6.0,84,0.00,,,0.00,35.0,meteohub,2013-01-25 13:00:00,
2013-01-25 08:05:00,41.5,37.0,30.32,NE,46,0.0,4.0,84,0.00,,,0.00,51.0,meteohub,2013-01-25 13:05:00,
2013-01-25 08:10:00,41.4,36.9,30.32,NE,46,1.0,3.0,84,0.00,,,0.00,46.0,meteohub,2013-01-25 13:10:00,
2013-01-25 08:15:00,41.4,36.9,30.32,NE,46,0.0,2.0,84,0.00,,,0.00,104.0,meteohub,2013-01-25 13:15:00,
2013-01-25 08:20:00,41.5,37.0,30.32,NE,46,0.0,2.0,84,0.00,,,0.00,135.0,meteohub,2013-01-25 13:20:00,
2013-01-25 08:25:00,41.7,37.2,30.32,NE,46,1.0,1.0,84,0.00,,,0.00,132.0,meteohub,2013-01-25 13:25:00,
2013-01-25 08:30:00,41.9,37.4,30.32,NE,46,0.0,3.0,84,0.00,,,0.00,167.0,meteohub,2013-01-25 13:30:00,
2013-01-25 08:35:00,42.3,37.8,30.32,NNW,343,0.0,3.0,84,0.00,,,0.00,163.0,meteohub,2013-01-25 13:35:00,
2013-01-25 08:40:00,42.4,37.9,30.32,NNW,341,0.0,3.0,84,0.00,,,0.00,204.0,meteohub,2013-01-25 13:40:00,
2013-01-25 08:45:00,42.8,38.3,30.33,NW,311,0.0,4.0,84,0.00,,,0.00,190.0,meteohub,2013-01-25 13:45:00,
2013-01-25 08:50:00,43.2,38.7,30.33,North,0,2.0,4.0,84,0.00,,,0.00,142.0,meteohub,2013-01-25 13:50:00,
2013-01-25 08:55:00,43.3,38.8,30.33,NNE,23,0.0,6.0,84,0.00,,,0.00,225.0,meteohub,2013-01-25 13:55:00,
2013-01-25 09:00:00,43.7,39.2,30.33,NNW,329,1.0,6.0,84,0.00,,,0.00,188.0,meteohub,2013-01-25 14:00:00,
2013-01-25 09:05:00,44.1,39.6,30.32,NNE,24,0.0,6.0,84,0.00,,,0.00,199.0,meteohub,2013-01-25 14:05:00,
2013-01-25 09:10:00,44.4,39.9,30.32,NNE,24,0.0,5.0,84,0.00,,,0.00,306.0,meteohub,2013-01-25 14:10:00,
2013-01-25 09:15:00,44.8,40.3,30.32,NE,46,0.0,5.0,84,0.00,,,0.00,302.0,meteohub,2013-01-25 14:15:00,
2013-01-25 09:20:00,45.0,40.5,30.32,NE,38,3.0,5.0,84,0.00,,,0.00,316.0,meteohub,2013-01-25 14:20:00,
2013-01-25 09:25:00,45.3,40.8,30.32,NNE,32,0.0,5.0,84,0.00,,,0.00,336.0,meteohub,2013-01-25 14:25:00,
2013-01-25 09:30:00,45.9,41.4,30.32,NE,55,6.0,6.0,84,0.00,,,0.00,350.0,meteohub,2013-01-25 14:30:00,
2013-01-25 09:35:00,46.2,41.7,30.33,NW,319,0.0,8.0,84,0.00,,,0.00,320.0,meteohub,2013-01-25 14:35:00,
2013-01-25 09:40:00,46.6,42.1,30.33,North,0,2.0,8.0,84,0.00,,,0.00,411.0,meteohub,2013-01-25 14:40:00,
2013-01-25 09:45:00,46.9,42.4,30.33,WNW,296,4.0,8.0,84,0.00,,,0.00,422.0,meteohub,2013-01-25 14:45:00,
2013-01-25 09:50:00,47.1,42.6,30.33,NW,313,4.0,7.0,84,0.00,,,0.00,408.0,meteohub,2013-01-25 14:50:00,
2013-01-25 09:55:00,47.5,42.8,30.33,NE,46,2.0,7.0,84,0.00,,,0.00,445.0,meteohub,2013-01-25 14:55:00,
2013-01-25 10:00:00,47.7,42.8,30.34,WNW,302,4.0,6.0,83,0.00,,,0.00,380.0,meteohub,2013-01-25 15:00:00,
2013-01-25 10:05:00,47.1,42.3,30.34,West,269,4.0,9.0,83,0.00,,,0.00,278.0,meteohub,2013-01-25 15:05:00,
2013-01-25 10:10:00,46.8,41.9,30.35,WNW,293,1.0,10.0,83,0.00,,,0.00,290.0,meteohub,2013-01-25 15:10:00,
2013-01-25 10:15:00,46.6,41.7,30.35,WNW,295,3.0,10.0,83,0.00,,,0.00,220.0,meteohub,2013-01-25 15:15:00,
2013-01-25 10:21:00,46.4,41.2,30.35,NW,322,2.0,10.0,82,0.00,,,0.00,283.0,meteohub,2013-01-25 15:21:00,
2013-01-25 10:26:00,46.4,41.2,30.34,NW,325,0.0,6.0,82,0.00,,,0.00,415.0,meteohub,2013-01-25 15:26:00,
2013-01-25 10:31:00,46.8,41.9,30.34,NW,323,2.0,6.0,83,0.00,,,0.00,279.0,meteohub,2013-01-25 15:31:00,
2013-01-25 10:36:00,46.8,41.5,30.34,NW,322,3.0,7.0,82,0.00,,,0.00,357.0,meteohub,2013-01-25 15:36:00,
2013-01-25 10:41:00,46.8,41.5,30.34,NNE,29,0.0,7.0,82,0.00,,,0.00,348.0,meteohub,2013-01-25 15:41:00,
2013-01-25 10:46:00,46.9,41.7,30.34,WNW,296,2.0,7.0,82,0.00,,,0.00,315.0,meteohub,2013-01-25 15:46:00,
2013-01-25 10:51:00,46.9,41.7,30.35,NE,46,1.0,7.0,82,0.00,,,0.00,396.0,meteohub,2013-01-25 15:51:00,
2013-01-25 10:56:00,46.9,41.4,30.34,WNW,287,0.0,8.0,81,0.00,,,0.00,417.0,meteohub,2013-01-25 15:56:00,
2013-01-25 11:01:00,46.9,41.4,30.34,NW,304,1.0,8.0,81,0.00,,,0.00,408.0,meteohub,2013-01-25 16:01:00,
2013-01-25 11:06:00,47.3,41.7,30.33,NE,45,3.0,8.0,81,0.00,,,0.00,438.0,meteohub,2013-01-25 16:06:00,
2013-01-25 11:11:00,47.5,41.9,30.33,NE,47,3.0,7.0,81,0.00,,,0.00,557.0,meteohub,2013-01-25 16:11:00,
2013-01-25 11:16:00,47.3,41.7,30.33,North,5,1.0,8.0,81,0.00,,,0.00,635.0,meteohub,2013-01-25 16:16:00,
2013-01-25 11:21:00,47.8,42.3,30.32,WNW,292,2.0,8.0,81,0.00,,,0.00,429.0,meteohub,2013-01-25 16:21:00,
2013-01-25 11:26:00,48.0,42.4,30.32,NE,46,2.0,8.0,81,0.00,,,0.00,512.0,meteohub,2013-01-25 16:26:00,
2013-01-25 11:31:00,48.6,42.6,30.32,NE,40,4.0,5.0,80,0.00,,,0.00,647.0,meteohub,2013-01-25 16:31:00,
2013-01-25 11:36:00,48.6,42.6,30.31,NE,40,0.0,7.0,80,0.00,,,0.00,629.0,meteohub,2013-01-25 16:36:00,
2013-01-25 11:41:00,48.7,42.8,30.31,NE,47,0.0,7.0,80,0.00,,,0.00,645.0,meteohub,2013-01-25 16:41:00,
2013-01-25 11:46:00,49.5,43.5,30.30,NE,41,3.0,8.0,80,0.00,,,0.00,666.0,meteohub,2013-01-25 16:46:00,
2013-01-25 11:51:00,49.8,43.9,30.30,NW,325,0.0,8.0,80,0.00,,,0.00,661.0,meteohub,2013-01-25 16:51:00,
2013-01-25 11:56:00,50.4,44.4,30.29,WNW,294,0.0,6.0,80,0.00,,,0.00,626.0,meteohub,2013-01-25 16:56:00,
2013-01-25 12:01:00,51.1,45.1,30.29,WNW,294,0.0,6.0,80,0.00,,,0.00,664.0,meteohub,2013-01-25 17:01:00,
2013-01-25 12:06:00,51.3,45.0,30.28,NNE,30,0.0,5.0,79,0.00,,,0.00,680.0,meteohub,2013-01-25 17:06:00,
2013-01-25 12:11:00,51.4,45.1,30.27,NNE,31,0.0,5.0,79,0.00,,,0.00,735.0,meteohub,2013-01-25 17:11:00,
2013-01-25 12:16:00,51.8,45.5,30.27,NNE,33,0.0,6.0,79,0.00,,,0.00,308.0,meteohub,2013-01-25 17:16:00,
2013-01-25 12:21:00,52.0,45.7,30.27,NE,34,2.0,6.0,79,0.00,,,0.00,139.0,meteohub,2013-01-25 17:21:00,
2013-01-25 12:26:00,52.2,45.9,30.26,NE,52,0.0,6.0,79,0.00,,,0.00,729.0,meteohub,2013-01-25 17:26:00,
2013-01-25 12:32:00,52.2,45.9,30.26,NE,52,0.0,4.0,79,0.00,,,0.00,116.0,meteohub,2013-01-25 17:32:00,
2013-01-25 12:37:00,52.3,46.0,30.25,NE,52,0.0,4.0,79,0.00,,,0.00,689.0,meteohub,2013-01-25 17:37:00,
2013-01-25 12:42:00,52.7,46.4,30.25,NE,52,0.0,3.0,79,0.00,,,0.00,680.0,meteohub,2013-01-25 17:42:00,
2013-01-25 12:47:00,53.2,46.9,30.24,NE,52,0.0,3.0,79,0.00,,,0.00,675.0,meteohub,2013-01-25 17:47:00,
2013-01-25 12:52:00,54.1,47.8,30.24,NE,52,0.0,2.0,79,0.00,,,0.00,673.0,meteohub,2013-01-25 17:52:00,
2013-01-25 12:57:00,55.0,48.4,30.24,WNW,290,0.0,2.0,78,0.00,,,0.00,671.0,meteohub,2013-01-25 17:57:00,
2013-01-25 13:02:00,55.6,48.9,30.23,WNW,290,0.0,2.0,78,0.00,,,0.00,670.0,meteohub,2013-01-25 18:02:00,
2013-01-25 13:07:00,56.1,49.3,30.23,WSW,254,0.0,3.0,78,0.00,,,0.00,668.0,meteohub,2013-01-25 18:07:00,
2013-01-25 13:12:00,56.5,49.6,30.23,WNW,297,1.0,4.0,78,0.00,,,0.00,666.0,meteohub,2013-01-25 18:12:00,
2013-01-25 13:17:00,56.7,49.8,30.22,NW,309,0.0,4.0,78,0.00,,,0.00,661.0,meteohub,2013-01-25 18:17:00,
2013-01-25 13:22:00,57.0,50.2,30.22,WNW,290,0.0,4.0,78,0.00,,,0.00,656.0,meteohub,2013-01-25 18:22:00,
2013-01-25 13:27:00,57.6,50.7,30.22,SW,232,2.0,4.0,78,0.00,,,0.00,652.0,meteohub,2013-01-25 18:27:00,
2013-01-25 13:32:00,58.5,51.3,30.21,SW,232,0.0,5.0,77,0.00,,,0.00,649.0,meteohub,2013-01-25 18:32:00,
2013-01-25 13:37:00,59.2,52.0,30.21,WSW,244,0.0,5.0,77,0.00,,,0.00,645.0,meteohub,2013-01-25 18:37:00,
2013-01-25 13:42:00,60.1,52.9,30.21,West,260,1.0,5.0,77,0.00,,,0.00,643.0,meteohub,2013-01-25 18:42:00,
2013-01-25 13:47:00,60.6,53.1,30.20,WNW,287,0.0,4.0,76,0.00,,,0.00,635.0,meteohub,2013-01-25 18:47:00,
2013-01-25 13:52:00,61.5,54.0,30.20,South,173,1.0,4.0,76,0.00,,,0.00,633.0,meteohub,2013-01-25 18:52:00,
2013-01-25 13:57:00,62.2,54.1,30.21,WNW,298,3.0,4.0,75,0.00,,,0.00,629.0,meteohub,2013-01-25 18:57:00,
2013-01-25 14:02:00,62.8,54.7,30.21,WSW,248,0.0,4.0,75,0.00,,,0.00,612.0,meteohub,2013-01-25 19:02:00,
2013-01-25 14:07:00,63.3,54.9,30.20,South,170,1.0,4.0,74,0.00,,,0.00,636.0,meteohub,2013-01-25 19:07:00,
2013-01-25 14:12:00,63.9,55.4,30.20,South,183,1.0,4.0,74,0.00,,,0.00,659.0,meteohub,2013-01-25 19:12:00,
2013-01-25 14:17:00,64.0,55.2,30.20,South,183,2.0,4.0,73,0.00,,,0.00,288.0,meteohub,2013-01-25 19:17:00,
2013-01-25 14:22:00,64.0,55.2,30.19,SSW,198,2.0,5.0,73,0.00,,,0.00,612.0,meteohub,2013-01-25 19:22:00,
2013-01-25 14:27:00,64.6,55.8,30.19,SSE,163,2.0,6.0,73,0.00,,,0.00,608.0,meteohub,2013-01-25 19:27:00,
2013-01-25 14:32:00,64.8,55.6,30.18,SE,139,0.0,6.0,72,0.00,,,0.00,605.0,meteohub,2013-01-25 19:32:00,
2013-01-25 14:37:00,64.8,55.6,30.18,South,169,1.0,6.0,72,0.00,,,0.00,380.0,meteohub,2013-01-25 19:37:00,
2013-01-25 14:42:00,64.8,55.2,30.18,SSE,153,1.0,6.0,71,0.00,,,0.00,482.0,meteohub,2013-01-25 19:42:00,
2013-01-25 14:47:00,64.8,55.2,30.17,South,189,1.0,6.0,71,0.00,,,0.00,139.0,meteohub,2013-01-25 19:47:00,
2013-01-25 14:52:00,64.2,54.7,30.17,South,189,0.0,6.0,71,0.00,,,0.00,144.0,meteohub,2013-01-25 19:52:00,
2013-01-25 14:57:00,64.2,54.7,30.17,South,189,1.0,6.0,71,0.00,,,0.00,584.0,meteohub,2013-01-25 19:57:00,
2013-01-25 15:02:00,64.4,54.9,30.17,SSE,156,2.0,3.0,71,0.00,,,0.00,202.0,meteohub,2013-01-25 20:02:00,
2013-01-25 15:07:00,64.2,54.7,30.17,SSE,157,1.0,3.0,71,0.00,,,0.00,244.0,meteohub,2013-01-25 20:07:00,
2013-01-25 15:12:00,64.6,55.0,30.17,SSE,157,0.0,3.0,71,0.00,,,0.00,650.0,meteohub,2013-01-25 20:12:00,
2013-01-25 15:17:00,64.8,54.7,30.16,SSE,156,0.0,3.0,70,0.00,,,0.00,374.0,meteohub,2013-01-25 20:17:00,
2013-01-25 15:22:00,64.8,54.7,30.17,SSE,157,2.0,2.0,70,0.00,,,0.00,271.0,meteohub,2013-01-25 20:22:00,
2013-01-25 15:27:00,64.8,55.0,30.10,SE,140,0.0,-999.0,70,-99.99,,,0.00,536,weatherlink.com 1.10,2013-01-25 20:27:00,
2013-01-25 15:32:00,64.9,54.9,30.16,ENE,68,3.0,3.0,70,0.00,,,0.00,461.0,meteohub,2013-01-25 20:32:00,
2013-01-25 15:37:00,65.1,55.0,30.16,South,171,0.0,4.0,70,0.00,,,0.00,455.0,meteohub,2013-01-25 20:37:00,
2013-01-25 15:42:00,65.1,55.0,30.10,East,92,1.0,-999.0,69,-99.99,,,0.00,476,weatherlink.com 1.10,2013-01-25 20:42:00,
2013-01-25 15:47:00,65.5,55.4,30.15,East,92,1.0,4.0,70,0.00,,,0.00,478.0,meteohub,2013-01-25 20:47:00,
2013-01-25 15:52:00,65.8,55.4,30.15,South,184,2.0,3.0,69,0.00,,,0.00,186.0,meteohub,2013-01-25 20:52:00,
2013-01-25 15:57:00,65.6,56.0,30.10,South,184,0.0,-999.0,70,-99.99,,,0.00,134,weatherlink.com 1.10,2013-01-25 20:57:00,
2013-01-25 16:02:00,65.1,54.7,30.15,East,99,0.0,4.0,69,0.00,,,0.00,132.0,meteohub,2013-01-25 21:02:00,
2013-01-25 16:07:00,64.6,54.5,30.16,SE,142,0.0,5.0,70,0.00,,,0.00,118.0,meteohub,2013-01-25 21:07:00,
2013-01-25 16:12:00,64.2,54.3,30.16,SE,142,0.0,5.0,70,0.00,,,0.00,109.0,meteohub,2013-01-25 21:12:00,
2013-01-25 16:17:00,63.7,54.1,30.16,SE,138,0.0,5.0,71,0.00,,,0.00,83.0,meteohub,2013-01-25 21:17:00,
2013-01-25 16:22:00,63.1,53.6,30.16,ESE,110,0.0,3.0,71,0.00,,,0.00,114.0,meteohub,2013-01-25 21:22:00,
2013-01-25 16:27:00,62.8,53.6,30.16,ESE,110,1.0,3.0,72,0.00,,,0.00,105.0,meteohub,2013-01-25 21:27:00,
2013-01-25 16:32:00,62.2,53.1,30.16,ENE,61,0.0,3.0,72,0.00,,,0.00,81.0,meteohub,2013-01-25 21:32:00,
2013-01-25 16:37:00,61.9,52.7,30.15,East,88,1.0,5.0,72,0.00,,,0.00,102.0,meteohub,2013-01-25 21:37:00,
2013-01-25 16:42:00,61.5,52.7,30.15,SE,132,2.0,5.0,73,0.00,,,0.00,86.0,meteohub,2013-01-25 21:42:00,
2013-01-25 16:47:00,61.0,52.3,30.16,ENE,58,0.0,5.0,73,0.00,,,0.00,109.0,meteohub,2013-01-25 21:47:00,
2013-01-25 16:52:00,60.6,52.0,30.16,NE,41,2.0,5.0,73,0.00,,,0.00,91.0,meteohub,2013-01-25 21:52:00,
2013-01-25 16:57:00,60.3,51.6,30.16,ENE,64,1.0,5.0,73,0.00,,,0.00,156.0,meteohub,2013-01-25 21:57:00,
2013-01-25 17:02:00,59.7,51.4,30.15,ENE,74,2.0,4.0,74,0.00,,,0.00,114.0,meteohub,2013-01-25 22:02:00,
2013-01-25 17:07:00,59.4,51.1,30.15,East,85,1.0,4.0,74,0.00,,,0.00,65.0,meteohub,2013-01-25 22:07:00,
2013-01-25 17:12:00,59.0,50.7,30.15,ENE,63,1.0,5.0,74,0.00,,,0.00,32.0,meteohub,2013-01-25 22:12:00,
2013-01-25 17:18:00,58.8,51.3,30.16,NE,50,1.0,5.0,76,0.00,,,0.00,37.0,meteohub,2013-01-25 22:18:00,
2013-01-25 17:23:00,58.6,50.7,30.16,NE,50,0.0,5.0,75,0.00,,,0.00,25.0,meteohub,2013-01-25 22:23:00,
2013-01-25 17:28:00,58.3,50.4,30.16,NE,49,0.0,4.0,75,0.00,,,0.00,28.0,meteohub,2013-01-25 22:28:00,
2013-01-25 17:33:00,58.1,50.2,30.16,NE,50,0.0,3.0,75,0.00,,,0.00,25.0,meteohub,2013-01-25 22:33:00,
2013-01-25 17:38:00,57.9,50.4,30.16,NE,49,0.0,2.0,76,0.00,,,0.00,18.0,meteohub,2013-01-25 22:38:00,
2013-01-25 17:43:00,57.7,50.2,30.16,NE,50,0.0,1.0,76,0.00,,,0.00,12.0,meteohub,2013-01-25 22:43:00,
2013-01-25 17:48:00,57.4,49.8,30.16,NE,49,0.0,1.0,76,0.00,,,0.00,9.0,meteohub,2013-01-25 22:48:00,
2013-01-25 17:53:00,57.0,49.5,30.16,NE,50,0.0,1.0,76,0.00,,,0.00,7.0,meteohub,2013-01-25 22:53:00,
2013-01-25 17:58:00,56.8,49.3,30.16,NE,50,0.0,1.0,76,0.00,,,0.00,0.0,meteohub,2013-01-25 22:58:00,
2013-01-25 18:03:00,56.5,49.3,30.16,NE,50,0.0,0.0,77,0.00,,,0.00,0.0,meteohub,2013-01-25 23:03:00,
2013-01-25 18:08:00,55.9,48.9,30.16,NE,49,0.0,1.0,77,0.00,,,0.00,0.0,meteohub,2013-01-25 23:08:00,
2013-01-25 18:13:00,55.8,48.9,30.17,NE,50,0.0,1.0,78,0.00,,,0.00,0.0,meteohub,2013-01-25 23:13:00,
2013-01-25 18:18:00,55.2,48.6,30.16,NE,49,0.0,1.0,78,0.00,,,0.00,0.0,meteohub,2013-01-25 23:18:00,
2013-01-25 18:23:00,55.0,48.4,30.17,NE,50,0.0,1.0,78,0.00,,,0.00,0.0,meteohub,2013-01-25 23:23:00,
2013-01-25 18:28:00,54.7,48.4,30.16,NE,49,0.0,1.0,79,0.00,,,0.00,0.0,meteohub,2013-01-25 23:28:00,
2013-01-25 18:33:00,54.3,48.0,30.16,NE,50,0.0,1.0,79,0.00,,,0.00,0.0,meteohub,2013-01-25 23:33:00,
2013-01-25 18:38:00,54.0,47.7,30.16,NE,50,0.0,0.0,79,0.00,,,0.00,0.0,meteohub,2013-01-25 23:38:00,
2013-01-25 18:43:00,53.8,47.5,30.16,NE,50,0.0,0.0,79,0.00,,,0.00,0.0,meteohub,2013-01-25 23:43:00,
2013-01-25 18:48:00,53.4,47.1,30.17,NE,50,0.0,0.0,79,0.00,,,0.00,0.0,meteohub,2013-01-25 23:48:00,
2013-01-25 18:53:00,53.4,47.5,30.17,NE,50,0.0,0.0,80,0.00,,,0.00,0.0,meteohub,2013-01-25 23:53:00,
2013-01-25 18:58:00,53.1,47.1,30.17,NE,50,0.0,0.0,80,0.00,,,0.00,0.0,meteohub,2013-01-25 23:58:00,
2013-01-25 19:03:00,52.9,46.9,30.17,NE,50,0.0,0.0,80,0.00,,,0.00,0.0,meteohub,2013-01-26 00:03:00,
2013-01-25 19:08:00,52.7,46.8,30.17,NE,49,0.0,0.0,80,0.00,,,0.00,0.0,meteohub,2013-01-26 00:08:00,
2013-01-25 19:13:00,52.5,46.9,30.17,NE,50,0.0,0.0,81,0.00,,,0.00,0.0,meteohub,2013-01-26 00:13:00,
2013-01-25 19:18:00,52.5,46.9,30.17,NE,49,0.0,1.0,81,0.00,,,0.00,0.0,meteohub,2013-01-26 00:18:00,
2013-01-25 19:23:00,52.5,46.9,30.16,NE,50,0.0,1.0,81,0.00,,,0.00,0.0,meteohub,2013-01-26 00:23:00,
2013-01-25 19:28:00,52.5,46.9,30.16,NE,50,1.0,1.0,81,0.00,,,0.00,0.0,meteohub,2013-01-26 00:28:00,
2013-01-25 19:33:00,52.3,46.8,30.16,NE,49,0.0,1.0,81,0.00,,,0.00,0.0,meteohub,2013-01-26 00:33:00,
2013-01-25 19:38:00,52.5,47.1,30.16,NE,50,0.0,1.0,82,0.00,,,0.00,0.0,meteohub,2013-01-26 00:38:00,
2013-01-25 19:43:00,52.3,46.9,30.17,NE,50,0.0,1.0,82,0.00,,,0.00,0.0,meteohub,2013-01-26 00:43:00,
2013-01-25 19:48:00,52.3,46.9,30.17,NE,50,0.0,1.0,82,0.00,,,0.00,0.0,meteohub,2013-01-26 00:48:00,
2013-01-25 19:53:00,52.3,46.9,30.16,NE,49,0.0,0.0,82,0.00,,,0.00,0.0,meteohub,2013-01-26 00:53:00,
2013-01-25 19:58:00,52.2,46.8,30.16,NE,50,0.0,0.0,82,0.00,,,0.00,0.0,meteohub,2013-01-26 00:58:00,
2013-01-25 20:03:00,52.2,46.8,30.15,NE,50,0.0,0.0,82,0.00,,,0.00,0.0,meteohub,2013-01-26 01:03:00,
2013-01-25 20:08:00,52.0,46.9,30.15,NE,49,0.0,0.0,83,0.00,,,0.00,0.0,meteohub,2013-01-26 01:08:00,
2013-01-25 20:13:00,52.0,46.9,30.15,NE,50,0.0,0.0,83,0.00,,,0.00,0.0,meteohub,2013-01-26 01:13:00,
2013-01-25 20:18:00,52.0,46.9,30.15,NE,50,0.0,1.0,83,0.00,,,0.00,0.0,meteohub,2013-01-26 01:18:00,
2013-01-25 20:23:00,52.0,46.9,30.14,NE,49,0.0,1.0,83,0.00,,,0.00,0.0,meteohub,2013-01-26 01:23:00,
2013-01-25 20:28:00,52.0,46.9,30.15,NE,50,0.0,1.0,83,0.00,,,0.00,0.0,meteohub,2013-01-26 01:28:00,
2013-01-25 20:33:00,52.0,46.9,30.15,NE,49,0.0,0.0,83,0.00,,,0.00,0.0,meteohub,2013-01-26 01:33:00,
2013-01-25 20:38:00,52.0,46.9,30.15,NE,49,0.0,0.0,83,0.00,,,0.00,0.0,meteohub,2013-01-26 01:38:00,
2013-01-25 20:43:00,52.0,46.9,30.15,NE,50,0.0,0.0,83,0.00,,,0.00,0.0,meteohub,2013-01-26 01:43:00,
2013-01-25 20:48:00,51.8,47.1,30.16,NE,50,0.0,0.0,84,0.00,,,0.00,0.0,meteohub,2013-01-26 01:48:00,
2013-01-25 20:54:00,51.8,47.1,30.16,NE,50,0.0,0.0,84,0.00,,,0.00,0.0,meteohub,2013-01-26 01:54:00,
2013-01-25 20:59:00,51.6,46.9,30.16,NE,50,0.0,0.0,84,0.00,,,0.00,0.0,meteohub,2013-01-26 01:59:00,
2013-01-25 21:03:00,51.4,46.8,30.16,NE,49,0.0,0.0,84,0.00,,,0.00,0.0,meteohub,2013-01-26 02:03:00,
2013-01-25 21:08:00,51.3,46.6,30.16,NE,50,0.0,0.0,84,0.00,,,0.00,0.0,meteohub,2013-01-26 02:08:00,
2013-01-25 21:14:00,51.1,46.4,30.16,NE,49,0.0,0.0,84,0.00,,,0.00,0.0,meteohub,2013-01-26 02:14:00,
2013-01-25 21:19:00,50.9,46.2,30.16,NE,49,0.0,0.0,84,0.00,,,0.00,0.0,meteohub,2013-01-26 02:19:00,
2013-01-25 21:24:00,50.7,46.0,30.16,NE,50,0.0,0.0,84,0.00,,,0.00,0.0,meteohub,2013-01-26 02:24:00,
2013-01-25 21:28:00,50.7,46.0,30.16,NE,50,0.0,0.0,84,0.00,,,0.00,0.0,meteohub,2013-01-26 02:28:00,
2013-01-25 21:33:00,50.5,46.2,30.16,NE,50,0.0,0.0,85,0.00,,,0.00,0.0,meteohub,2013-01-26 02:33:00,
2013-01-25 21:39:00,50.2,45.9,30.16,NE,49,0.0,0.0,85,0.00,,,0.00,0.0,meteohub,2013-01-26 02:39:00,
2013-01-25 21:43:00,49.8,45.5,30.16,NE,50,0.0,0.0,85,0.00,,,0.00,0.0,meteohub,2013-01-26 02:43:00,
2013-01-25 21:48:00,49.6,45.3,30.16,NE,49,0.0,0.0,85,0.00,,,0.00,0.0,meteohub,2013-01-26 02:48:00,
2013-01-25 21:53:00,49.5,45.1,30.16,NE,49,0.0,0.0,85,0.00,,,0.00,0.0,meteohub,2013-01-26 02:53:00,
2013-01-25 21:59:00,49.3,45.0,30.16,NE,50,0.0,0.0,85,0.00,,,0.00,0.0,meteohub,2013-01-26 02:59:00,
2013-01-25 22:04:00,49.1,44.8,30.16,NE,50,0.0,0.0,85,0.00,,,0.00,0.0,meteohub,2013-01-26 03:04:00,
2013-01-25 22:09:00,48.9,44.6,30.16,NE,49,0.0,0.0,85,0.00,,,0.00,0.0,meteohub,2013-01-26 03:09:00,
2013-01-25 22:14:00,48.7,44.4,30.16,NE,50,0.0,0.0,85,0.00,,,0.00,0.0,meteohub,2013-01-26 03:14:00,
2013-01-25 22:19:00,48.7,44.4,30.16,NE,49,0.0,0.0,85,0.00,,,0.00,0.0,meteohub,2013-01-26 03:19:00,
2013-01-25 22:24:00,48.7,44.8,30.16,NE,50,0.0,0.0,86,0.00,,,0.00,0.0,meteohub,2013-01-26 03:24:00,
2013-01-25 22:29:00,48.6,44.6,30.17,NE,49,0.0,0.0,86,0.00,,,0.00,0.0,meteohub,2013-01-26 03:29:00,
2013-01-25 22:34:00,48.6,44.6,30.17,NE,50,0.0,0.0,86,0.00,,,0.00,0.0,meteohub,2013-01-26 03:34:00,
2013-01-25 22:39:00,48.4,44.4,30.17,NE,50,0.0,0.0,86,0.00,,,0.00,0.0,meteohub,2013-01-26 03:39:00,
2013-01-25 22:44:00,48.0,44.1,30.17,NE,49,0.0,0.0,86,0.00,,,0.00,0.0,meteohub,2013-01-26 03:44:00,
2013-01-25 22:49:00,47.8,43.9,30.17,NE,50,0.0,0.0,86,0.00,,,0.00,0.0,meteohub,2013-01-26 03:49:00,
2013-01-25 22:54:00,47.7,43.7,30.17,NE,50,0.0,0.0,86,0.00,,,0.00,0.0,meteohub,2013-01-26 03:54:00,
2013-01-25 22:59:00,47.7,43.7,30.17,NE,49,0.0,0.0,86,0.00,,,0.00,0.0,meteohub,2013-01-26 03:59:00,
2013-01-25 23:04:00,47.5,43.5,30.17,NE,50,0.0,0.0,86,0.00,,,0.00,0.0,meteohub,2013-01-26 04:04:00,
2013-01-25 23:09:00,47.5,43.5,30.17,NE,49,0.0,0.0,86,0.00,,,0.00,0.0,meteohub,2013-01-26 04:09:00,
2013-01-25 23:14:00,47.3,43.3,30.17,NE,50,0.0,0.0,86,0.00,,,0.00,0.0,meteohub,2013-01-26 04:14:00,
2013-01-25 23:19:00,47.1,43.2,30.17,NE,50,0.0,0.0,86,0.00,,,0.00,0.0,meteohub,2013-01-26 04:19:00,
2013-01-25 23:24:00,46.9,43.3,30.17,NE,50,0.0,0.0,87,0.00,,,0.00,0.0,meteohub,2013-01-26 04:24:00,
2013-01-25 23:29:00,46.9,43.3,30.17,NE,50,0.0,0.0,87,0.00,,,0.00,0.0,meteohub,2013-01-26 04:29:00,
2013-01-25 23:34:00,46.8,43.2,30.17,NE,50,0.0,0.0,87,0.00,,,0.00,0.0,meteohub,2013-01-26 04:34:00,
2013-01-25 23:39:00,46.6,43.0,30.17,NE,50,0.0,0.0,87,0.00,,,0.00,0.0,meteohub,2013-01-26 04:39:00,
2013-01-25 23:44:00,46.6,43.0,30.17,NE,50,0.0,0.0,87,0.00,,,0.00,0.0,meteohub,2013-01-26 04:44:00,
2013-01-25 23:49:00,46.2,42.6,30.17,NE,50,0.0,0.0,87,0.00,,,0.00,0.0,meteohub,2013-01-26 04:49:00,
2013-01-25 23:54:00,46.2,42.6,30.17,NE,49,0.0,0.0,87,0.00,,,0.00,0.0,meteohub,2013-01-26 04:54:00,
2013-01-25 23:59:00,46.0,42.4,30.17,NE,50,0.0,0.0,87,0.00,,,0.00,0.0,meteohub,2013-01-26 04:59:00,